createdAt,value
2017-02-26T00:00:23.412Z,73.60
2017-02-26T00:01:22.461Z,73.70
2017-02-26T00:02:21.580Z,73.90
2017-02-26T00:03:20.587Z,73.90
2017-02-26T00:04:19.756Z,73.80
2017-02-26T00:05:18.812Z,73.90
2017-02-26T00:06:17.552Z,74.10
2017-02-26T00:07:16.720Z,74.00
2017-02-26T00:08:15.441Z,74.00
2017-02-26T00:09:14.710Z,74.10
2017-02-26T00:10:13.446Z,74.00
2017-02-26T00:11:12.450Z,74.00
2017-02-26T00:12:11.576Z,74.10
2017-02-26T00:13:10.678Z,74.10
2017-02-26T00:14:09.650Z,74.10
2017-02-26T00:15:08.601Z,74.10
2017-02-26T00:16:07.644Z,74.10
2017-02-26T00:17:06.407Z,74.10
2017-02-26T00:18:05.697Z,74.10
2017-02-26T00:19:04.543Z,74.00
2017-02-26T00:20:03.469Z,74.00
2017-02-26T00:21:02.691Z,74.00
2017-02-26T00:22:01.440Z,74.00
2017-02-26T00:23:00.165Z,74.00
2017-02-26T00:23:58.875Z,74.00
2017-02-26T00:24:57.798Z,74.10
2017-02-26T00:25:56.665Z,74.10
2017-02-26T00:26:56.382Z,74.10
2017-02-26T00:27:55.119Z,74.10
2017-02-26T00:28:53.869Z,74.10
2017-02-26T00:29:52.800Z,74.20
2017-02-26T00:30:51.496Z,74.10
2017-02-26T00:31:50.387Z,74.00
2017-02-26T00:32:49.665Z,74.10
2017-02-26T00:33:48.309Z,74.00
2017-02-26T00:34:47.007Z,74.00
2017-02-26T00:35:45.690Z,73.90
2017-02-26T00:36:44.443Z,74.00
2017-02-26T00:37:43.343Z,74.00
2017-02-26T00:38:42.660Z,74.00
2017-02-26T00:39:42.130Z,74.00
2017-02-26T00:40:40.827Z,74.10
2017-02-26T00:41:40.126Z,74.00
2017-02-26T00:42:39.235Z,73.90
2017-02-26T00:43:38.165Z,73.90
2017-02-26T00:44:37.359Z,74.00
2017-02-26T00:45:36.052Z,74.10
2017-02-26T00:46:35.263Z,74.10
2017-02-26T00:47:34.385Z,74.10
2017-02-26T00:48:33.577Z,74.20
2017-02-26T00:49:32.278Z,74.10
2017-02-26T00:50:31.237Z,74.20
2017-02-26T00:51:29.910Z,74.00
2017-02-26T00:52:28.621Z,74.10
2017-02-26T00:53:27.665Z,74.10
2017-02-26T00:54:29.793Z,74.10
2017-02-26T00:55:28.923Z,74.10
2017-02-26T00:56:30.604Z,74.10
2017-02-26T00:57:29.315Z,74.10
2017-02-26T00:58:28.151Z,74.10
2017-02-26T00:59:26.847Z,74.10
2017-02-26T01:00:26.574Z,74.00
2017-02-26T01:01:25.276Z,74.10
2017-02-26T01:02:24.247Z,74.00
2017-02-26T01:03:23.123Z,74.00
2017-02-26T01:04:21.838Z,74.00
2017-02-26T01:05:21.552Z,74.00
2017-02-26T01:06:20.641Z,74.10
2017-02-26T01:07:19.560Z,74.10
2017-02-26T01:08:18.566Z,74.10
2017-02-26T01:09:17.630Z,74.10
2017-02-26T01:10:16.351Z,74.00
2017-02-26T01:11:15.364Z,74.10
2017-02-26T01:12:14.295Z,74.10
2017-02-26T01:13:13.300Z,74.10
2017-02-26T01:14:12.541Z,74.20
2017-02-26T01:15:11.462Z,74.20
2017-02-26T01:16:10.432Z,74.10
2017-02-26T01:17:10.019Z,74.10
2017-02-26T01:18:09.064Z,74.10
2017-02-26T01:19:07.817Z,74.10
2017-02-26T01:20:07.192Z,74.10
2017-02-26T01:21:05.884Z,74.10
2017-02-26T01:22:05.038Z,74.20
2017-02-26T01:23:03.824Z,74.20
2017-02-26T01:24:02.552Z,74.30
2017-02-26T01:25:01.255Z,74.40
2017-02-26T01:26:00.452Z,74.40
2017-02-26T01:26:59.494Z,74.40
2017-02-26T01:27:58.433Z,74.40
2017-02-26T01:28:57.176Z,74.40
2017-02-26T01:29:55.931Z,74.30
2017-02-26T01:30:54.655Z,74.60
2017-02-26T01:31:53.716Z,74.60
2017-02-26T01:32:52.960Z,74.60
2017-02-26T01:33:51.670Z,74.70
2017-02-26T01:34:50.411Z,74.70
2017-02-26T01:35:49.506Z,74.80
2017-02-26T01:36:48.236Z,74.80
2017-02-26T01:37:47.219Z,74.90
2017-02-26T01:38:45.917Z,74.80
2017-02-26T01:39:44.630Z,74.90
2017-02-26T01:40:43.427Z,74.90
2017-02-26T01:41:42.159Z,74.70
2017-02-26T01:42:40.860Z,74.80
2017-02-26T01:43:40.304Z,74.90
2017-02-26T01:44:39.339Z,75.00
2017-02-26T01:45:38.194Z,75.10
2017-02-26T01:46:36.947Z,74.90
2017-02-26T01:47:35.676Z,74.90
2017-02-26T01:48:34.395Z,75.00
2017-02-26T01:49:33.330Z,75.20
2017-02-26T01:50:32.378Z,75.10
2017-02-26T01:51:31.072Z,75.10
2017-02-26T01:52:29.821Z,75.20
2017-02-26T01:53:28.846Z,75.20
2017-02-26T01:54:27.571Z,75.10
2017-02-26T01:55:26.556Z,75.20
2017-02-26T01:56:25.299Z,75.20
2017-02-26T01:57:24.035Z,75.10
2017-02-26T01:58:22.918Z,75.10
2017-02-26T01:59:22.044Z,75.10
2017-02-26T02:00:25.019Z,75.20
2017-02-26T02:01:24.139Z,75.20
2017-02-26T02:02:22.884Z,75.20
2017-02-26T02:03:21.560Z,75.20
2017-02-26T02:04:20.828Z,75.30
2017-02-26T02:05:19.568Z,75.30
2017-02-26T02:06:18.313Z,75.40
2017-02-26T02:07:17.228Z,75.60
2017-02-26T02:08:16.257Z,75.60
2017-02-26T02:09:14.992Z,75.60
2017-02-26T02:10:14.004Z,75.60
2017-02-26T02:11:12.884Z,75.60
2017-02-26T02:12:12.247Z,75.40
2017-02-26T02:13:11.363Z,75.40
2017-02-26T02:14:10.484Z,75.30
2017-02-26T02:15:09.220Z,75.30
2017-02-26T02:16:08.435Z,75.30
2017-02-26T02:17:07.186Z,75.30
2017-02-26T02:18:05.949Z,75.40
2017-02-26T02:19:05.228Z,75.60
2017-02-26T02:20:04.180Z,75.60
2017-02-26T02:21:03.108Z,75.60
2017-02-26T02:22:01.872Z,75.60
2017-02-26T02:23:00.598Z,75.40
2017-02-26T02:23:59.878Z,75.40
2017-02-26T02:24:59.111Z,75.40
2017-02-26T02:25:57.804Z,75.40
2017-02-26T02:26:56.860Z,75.30
2017-02-26T02:27:55.626Z,75.30
2017-02-26T02:28:54.342Z,75.30
2017-02-26T02:29:53.060Z,75.40
2017-02-26T02:30:52.033Z,75.40
2017-02-26T02:31:51.037Z,75.30
2017-02-26T02:32:49.771Z,75.20
2017-02-26T02:33:48.927Z,75.30
2017-02-26T02:34:47.675Z,75.30
2017-02-26T02:35:46.387Z,75.30
2017-02-26T02:36:45.366Z,75.30
2017-02-26T02:37:44.160Z,75.30
2017-02-26T02:38:42.904Z,75.20
2017-02-26T02:39:41.664Z,75.20
2017-02-26T02:40:40.397Z,75.30
2017-02-26T02:41:39.360Z,75.20
2017-02-26T02:42:38.445Z,75.30
2017-02-26T02:43:38.220Z,75.40
2017-02-26T02:44:37.320Z,75.40
2017-02-26T02:45:36.055Z,75.50
2017-02-26T02:46:35.269Z,75.30
2017-02-26T02:47:34.320Z,75.40
2017-02-26T02:48:33.608Z,75.50
2017-02-26T02:49:32.770Z,75.40
2017-02-26T02:50:31.936Z,75.40
2017-02-26T02:51:30.704Z,75.40
2017-02-26T02:52:29.451Z,75.40
2017-02-26T02:53:28.386Z,75.40
2017-02-26T02:54:27.996Z,75.30
2017-02-26T02:55:27.378Z,75.20
2017-02-26T02:56:26.636Z,75.20
2017-02-26T02:57:25.386Z,75.20
2017-02-26T02:58:24.381Z,75.20
2017-02-26T02:59:23.092Z,75.20
2017-02-26T03:00:22.111Z,75.10
2017-02-26T03:01:21.121Z,75.10
2017-02-26T03:02:20.136Z,75.20
2017-02-26T03:03:18.876Z,75.20
2017-02-26T03:04:17.616Z,75.30
2017-02-26T03:05:16.579Z,75.30
2017-02-26T03:06:15.731Z,75.30
2017-02-26T03:07:14.445Z,75.40
2017-02-26T03:08:13.223Z,75.40
2017-02-26T03:09:12.193Z,75.20
2017-02-26T03:10:11.341Z,75.20
2017-02-26T03:11:10.110Z,75.30
2017-02-26T03:12:09.364Z,75.30
2017-02-26T03:13:08.420Z,75.30
2017-02-26T03:14:07.193Z,75.30
2017-02-26T03:15:05.919Z,75.20
2017-02-26T03:16:04.704Z,75.20
2017-02-26T03:17:03.833Z,75.30
2017-02-26T03:18:03.225Z,75.30
2017-02-26T03:19:02.406Z,75.50
2017-02-26T03:20:01.924Z,75.60
2017-02-26T03:21:00.623Z,75.60
2017-02-26T03:21:59.383Z,75.60
2017-02-26T03:22:58.464Z,75.50
2017-02-26T03:23:57.583Z,75.40
2017-02-26T03:24:56.638Z,75.30
2017-02-26T03:25:55.391Z,75.40
2017-02-26T03:26:54.341Z,75.50
2017-02-26T03:27:53.081Z,75.50
2017-02-26T03:28:51.842Z,75.40
2017-02-26T03:29:51.056Z,75.50
2017-02-26T03:30:50.137Z,75.50
2017-02-26T03:31:49.311Z,75.50
2017-02-26T03:32:48.348Z,75.40
2017-02-26T03:33:47.095Z,75.50
2017-02-26T03:34:45.831Z,75.40
2017-02-26T03:35:44.839Z,75.50
2017-02-26T03:36:43.769Z,75.50
2017-02-26T03:37:42.684Z,75.40
2017-02-26T03:38:41.991Z,75.40
2017-02-26T03:39:41.201Z,75.30
2017-02-26T03:40:40.378Z,75.30
2017-02-26T03:41:39.746Z,75.30
2017-02-26T03:42:38.735Z,75.30
2017-02-26T03:43:37.517Z,75.40
2017-02-26T03:44:36.247Z,75.50
2017-02-26T03:45:35.180Z,75.50
2017-02-26T03:46:35.182Z,75.50
2017-02-26T03:47:34.233Z,75.50
2017-02-26T03:48:33.171Z,75.60
2017-02-26T03:49:32.192Z,75.80
2017-02-26T03:50:30.928Z,75.80
2017-02-26T03:51:29.874Z,75.90
2017-02-26T03:52:28.551Z,75.90
2017-02-26T03:53:27.651Z,75.90
2017-02-26T03:54:26.418Z,75.80
2017-02-26T03:55:25.135Z,75.80
2017-02-26T03:56:23.870Z,75.80
2017-02-26T03:57:22.959Z,75.80
2017-02-26T03:58:21.680Z,75.70
2017-02-26T03:59:20.840Z,75.80
2017-02-26T04:00:19.889Z,75.70
2017-02-26T04:01:18.622Z,75.70
2017-02-26T04:02:17.369Z,75.70
2017-02-26T04:03:16.132Z,75.60
2017-02-26T04:04:15.207Z,75.50
2017-02-26T04:05:14.425Z,75.70
2017-02-26T04:06:13.456Z,75.80
2017-02-26T04:07:12.244Z,75.80
2017-02-26T04:08:11.024Z,75.80
2017-02-26T04:09:09.740Z,75.90
2017-02-26T04:10:09.080Z,75.70
2017-02-26T04:11:08.040Z,76.00
2017-02-26T04:12:07.229Z,76.00
2017-02-26T04:13:06.157Z,76.00
2017-02-26T04:14:05.091Z,76.10
2017-02-26T04:15:03.841Z,75.90
2017-02-26T04:16:02.573Z,75.70
2017-02-26T04:17:01.710Z,76.10
2017-02-26T04:18:00.765Z,75.90
2017-02-26T04:18:59.524Z,76.30
2017-02-26T04:19:58.225Z,76.60
2017-02-26T04:20:57.006Z,76.30
2017-02-26T04:21:55.755Z,76.60
2017-02-26T04:22:54.715Z,76.60
2017-02-26T04:23:53.458Z,76.50
2017-02-26T04:24:52.421Z,76.60
2017-02-26T04:25:51.144Z,76.90
2017-02-26T04:26:50.275Z,76.90
2017-02-26T04:27:49.336Z,76.90
2017-02-26T04:28:48.703Z,76.60
2017-02-26T04:29:47.439Z,76.70
2017-02-26T04:30:46.698Z,76.30
2017-02-26T04:31:45.535Z,76.30
2017-02-26T04:32:44.297Z,76.10
2017-02-26T04:33:43.049Z,76.30
2017-02-26T04:34:42.037Z,76.00
2017-02-26T04:35:40.742Z,76.20
2017-02-26T04:36:39.486Z,76.10
2017-02-26T04:37:38.211Z,76.30
2017-02-26T04:38:37.155Z,76.60
2017-02-26T04:39:35.868Z,76.50
2017-02-26T04:40:35.048Z,76.60
2017-02-26T04:41:34.167Z,76.60
2017-02-26T04:42:32.937Z,76.60
2017-02-26T04:43:31.655Z,76.60
2017-02-26T04:44:30.362Z,76.60
2017-02-26T04:45:29.268Z,76.80
2017-02-26T04:46:28.629Z,76.80
2017-02-26T04:47:27.552Z,76.60
2017-02-26T04:48:26.288Z,76.60
2017-02-26T04:49:25.038Z,76.60
2017-02-26T04:50:23.750Z,76.60
2017-02-26T04:51:22.493Z,76.60
2017-02-26T04:52:22.264Z,76.70
2017-02-26T04:53:21.173Z,76.80
2017-02-26T04:54:19.906Z,76.90
2017-02-26T04:55:18.654Z,76.90
2017-02-26T04:56:18.132Z,77.00
2017-02-26T04:57:16.957Z,77.00
2017-02-26T04:58:16.111Z,77.10
2017-02-26T04:59:14.883Z,77.00
2017-02-26T05:00:13.672Z,77.20
2017-02-26T05:01:12.393Z,77.10
2017-02-26T05:02:11.140Z,77.10
2017-02-26T05:03:10.311Z,77.20
2017-02-26T05:04:09.689Z,77.20
2017-02-26T05:05:08.404Z,77.30
2017-02-26T05:06:07.793Z,77.10
2017-02-26T05:07:06.527Z,77.10
2017-02-26T05:08:05.246Z,77.00
2017-02-26T05:09:04.452Z,77.00
2017-02-26T05:10:03.675Z,77.00
2017-02-26T05:11:02.724Z,77.20
2017-02-26T05:12:01.444Z,76.90
2017-02-26T05:13:00.159Z,76.80
2017-02-26T05:13:58.922Z,76.90
2017-02-26T05:14:57.957Z,77.00
2017-02-26T05:15:57.182Z,76.90
2017-02-26T05:16:55.902Z,77.10
2017-02-26T05:17:54.633Z,77.10
2017-02-26T05:18:53.314Z,77.30
2017-02-26T05:19:52.081Z,77.10
2017-02-26T05:20:50.829Z,77.20
2017-02-26T05:21:49.870Z,77.30
2017-02-26T05:22:48.643Z,77.30
2017-02-26T05:23:47.317Z,77.00
2017-02-26T05:24:46.060Z,77.10
2017-02-26T05:25:44.761Z,77.30
2017-02-26T05:26:43.467Z,76.90
2017-02-26T05:27:42.400Z,77.20
2017-02-26T05:28:41.121Z,77.10
2017-02-26T05:29:40.128Z,77.00
2017-02-26T05:30:39.047Z,76.70
2017-02-26T05:31:37.760Z,77.10
2017-02-26T05:32:36.694Z,77.10
2017-02-26T05:33:35.790Z,77.30
2017-02-26T05:34:34.889Z,77.10
2017-02-26T05:35:33.629Z,77.10
2017-02-26T05:36:32.370Z,77.00
2017-02-26T05:37:31.319Z,77.10
2017-02-26T05:38:30.070Z,77.10
2017-02-26T05:39:29.400Z,76.80
2017-02-26T05:40:28.125Z,77.00
2017-02-26T05:41:26.901Z,77.10
2017-02-26T05:42:25.795Z,77.40
2017-02-26T05:43:24.863Z,77.20
2017-02-26T05:44:23.587Z,77.20
2017-02-26T05:45:22.658Z,77.40
2017-02-26T05:46:21.996Z,77.30
2017-02-26T05:47:22.820Z,77.40
2017-02-26T05:48:21.566Z,77.40
2017-02-26T05:49:20.269Z,77.30
2017-02-26T05:50:19.296Z,77.30
2017-02-26T05:51:18.701Z,77.20
2017-02-26T05:52:17.426Z,76.90
2017-02-26T05:53:16.551Z,77.10
2017-02-26T05:54:15.296Z,77.10
2017-02-26T05:55:14.039Z,77.00
2017-02-26T05:56:12.821Z,77.40
2017-02-26T05:57:12.618Z,77.30
2017-02-26T05:58:11.542Z,77.20
2017-02-26T05:59:10.249Z,77.10
2017-02-26T06:00:09.128Z,77.00
2017-02-26T06:01:07.867Z,76.90
2017-02-26T06:02:07.163Z,77.10
2017-02-26T06:03:06.289Z,77.10
2017-02-26T06:04:05.019Z,76.70
2017-02-26T06:05:04.144Z,76.70
2017-02-26T06:06:02.846Z,76.70
2017-02-26T06:07:01.574Z,77.40
2017-02-26T06:08:00.301Z,77.00
2017-02-26T06:08:59.795Z,77.40
2017-02-26T06:09:58.808Z,77.10
2017-02-26T06:10:57.537Z,76.90
2017-02-26T06:11:56.233Z,77.00
2017-02-26T06:12:54.912Z,77.00
2017-02-26T06:13:53.659Z,77.30
2017-02-26T06:14:52.789Z,77.40
2017-02-26T06:15:51.961Z,77.20
2017-02-26T06:16:50.692Z,77.20
2017-02-26T06:17:49.757Z,77.00
2017-02-26T06:18:48.722Z,77.00
2017-02-26T06:19:47.927Z,77.40
2017-02-26T06:20:46.947Z,77.40
2017-02-26T06:21:45.636Z,77.50
2017-02-26T06:22:44.660Z,77.30
2017-02-26T06:23:43.386Z,77.40
2017-02-26T06:24:42.134Z,77.30
2017-02-26T06:25:40.839Z,77.50
2017-02-26T06:26:39.824Z,77.50
2017-02-26T06:27:38.491Z,77.40
2017-02-26T06:28:37.184Z,77.40
2017-02-26T06:29:36.246Z,77.10
2017-02-26T06:30:34.918Z,77.50
2017-02-26T06:31:33.630Z,77.10
2017-02-26T06:32:32.896Z,77.40
2017-02-26T06:33:31.599Z,77.50
2017-02-26T06:34:30.473Z,77.50
2017-02-26T06:35:29.247Z,77.00
2017-02-26T06:36:28.644Z,77.30
2017-02-26T06:37:27.360Z,77.40
2017-02-26T06:38:26.896Z,77.30
2017-02-26T06:39:25.603Z,77.70
2017-02-26T06:40:24.292Z,77.90
2017-02-26T06:41:23.041Z,77.60
2017-02-26T06:42:22.395Z,77.30
2017-02-26T06:43:21.267Z,77.40
2017-02-26T06:44:21.303Z,77.20
2017-02-26T06:45:20.024Z,76.80
2017-02-26T06:46:19.677Z,77.10
2017-02-26T06:47:18.359Z,77.10
2017-02-26T06:48:17.052Z,77.50
2017-02-26T06:49:15.772Z,77.70
2017-02-26T06:50:14.901Z,77.60
2017-02-26T06:51:13.608Z,77.80
2017-02-26T06:52:12.679Z,77.40
2017-02-26T06:53:11.414Z,77.40
2017-02-26T06:54:10.315Z,77.20
2017-02-26T06:55:09.004Z,77.10
2017-02-26T06:56:08.172Z,76.90
2017-02-26T06:57:06.913Z,76.80
2017-02-26T06:58:06.176Z,76.70
2017-02-26T06:59:04.903Z,77.10
2017-02-26T07:00:03.624Z,77.10
2017-02-26T07:01:02.331Z,77.50
2017-02-26T07:02:01.477Z,77.10
2017-02-26T07:03:00.540Z,77.50
2017-02-26T07:03:59.577Z,77.80
2017-02-26T07:04:58.332Z,77.70
2017-02-26T07:05:57.016Z,77.90
2017-02-26T07:06:55.761Z,77.70
2017-02-26T07:07:55.051Z,77.90
2017-02-26T07:08:53.767Z,77.80
2017-02-26T07:09:53.206Z,77.30
2017-02-26T07:10:51.935Z,77.30
2017-02-26T07:11:50.633Z,77.80
2017-02-26T07:12:49.524Z,77.70
2017-02-26T07:13:48.679Z,77.80
2017-02-26T07:14:47.855Z,78.30
2017-02-26T07:15:46.617Z,78.30
2017-02-26T07:16:45.705Z,78.40
2017-02-26T07:17:44.439Z,77.80
2017-02-26T07:18:43.180Z,78.20
2017-02-26T07:19:42.243Z,78.30
2017-02-26T07:20:40.956Z,77.70
2017-02-26T07:21:40.116Z,78.50
2017-02-26T07:22:39.085Z,78.50
2017-02-26T07:23:37.809Z,78.20
2017-02-26T07:24:36.904Z,78.10
2017-02-26T07:25:35.889Z,78.50
2017-02-26T07:26:34.644Z,78.40
2017-02-26T07:27:33.331Z,78.20
2017-02-26T07:28:32.071Z,78.50
2017-02-26T07:29:30.793Z,78.30
2017-02-26T07:30:29.501Z,78.40
2017-02-26T07:31:28.444Z,78.00
2017-02-26T07:32:27.129Z,77.70
2017-02-26T07:33:26.299Z,78.40
2017-02-26T07:34:25.049Z,78.00
2017-02-26T07:35:23.766Z,77.90
2017-02-26T07:36:22.431Z,78.60
2017-02-26T07:37:21.589Z,78.60
2017-02-26T07:38:20.300Z,78.20
2017-02-26T07:39:19.040Z,78.10
2017-02-26T07:40:17.726Z,78.20
2017-02-26T07:41:16.573Z,78.50
2017-02-26T07:42:15.278Z,78.80
2017-02-26T07:43:14.428Z,78.90
2017-02-26T07:44:13.357Z,78.90
2017-02-26T07:45:12.651Z,78.90
2017-02-26T07:46:12.369Z,79.00
2017-02-26T07:47:11.103Z,78.60
2017-02-26T07:48:09.819Z,78.80
2017-02-26T07:49:08.933Z,78.80
2017-02-26T07:50:07.642Z,78.50
2017-02-26T07:51:07.415Z,78.50
2017-02-26T07:52:06.131Z,78.60
2017-02-26T07:53:04.796Z,78.20
2017-02-26T07:54:03.800Z,78.10
2017-02-26T07:55:02.835Z,78.30
2017-02-26T07:56:01.549Z,78.30
2017-02-26T07:57:01.480Z,78.30
2017-02-26T07:58:00.684Z,78.30
2017-02-26T07:58:59.439Z,78.10
2017-02-26T07:59:58.228Z,77.80
2017-02-26T08:00:57.299Z,77.80
2017-02-26T08:01:56.262Z,77.80
2017-02-26T08:02:55.012Z,77.70
2017-02-26T08:03:53.745Z,77.70
2017-02-26T08:04:52.452Z,77.70
2017-02-26T08:05:55.040Z,77.80
2017-02-26T08:06:53.964Z,77.80
2017-02-26T08:07:55.184Z,77.70
2017-02-26T08:08:54.702Z,77.10
2017-02-26T08:09:53.715Z,77.10
2017-02-26T08:10:52.487Z,77.30
2017-02-26T08:11:51.533Z,77.40
2017-02-26T08:12:50.671Z,77.50
2017-02-26T08:13:49.430Z,77.50
2017-02-26T08:14:48.364Z,77.40
2017-02-26T08:15:47.474Z,77.30
2017-02-26T08:16:46.292Z,77.30
2017-02-26T08:17:47.112Z,77.30
2017-02-26T08:18:46.045Z,77.30
2017-02-26T08:19:44.964Z,77.10
2017-02-26T08:20:43.679Z,77.20
2017-02-26T08:21:42.593Z,76.90
2017-02-26T08:22:41.669Z,77.20
2017-02-26T08:23:40.400Z,77.00
2017-02-26T08:24:40.120Z,77.00
2017-02-26T08:25:39.864Z,76.90
2017-02-26T08:26:38.756Z,76.90
2017-02-26T08:27:37.531Z,76.70
2017-02-26T08:28:36.578Z,76.80
2017-02-26T08:29:35.687Z,76.80
2017-02-26T08:30:34.435Z,76.80
2017-02-26T08:31:33.167Z,76.50
2017-02-26T08:32:32.214Z,76.40
2017-02-26T08:33:31.300Z,76.80
2017-02-26T08:34:29.990Z,76.80
2017-02-26T08:35:29.204Z,76.30
2017-02-26T08:36:28.029Z,76.00
2017-02-26T08:37:27.061Z,76.00
2017-02-26T08:38:25.825Z,76.00
2017-02-26T08:39:24.643Z,75.90
2017-02-26T08:40:23.384Z,75.60
2017-02-26T08:41:22.348Z,75.40
2017-02-26T08:42:21.455Z,75.60
2017-02-26T08:43:20.147Z,75.60
2017-02-26T08:44:18.853Z,75.30
2017-02-26T08:45:17.539Z,75.10
2017-02-26T08:46:16.751Z,75.20
2017-02-26T08:47:15.724Z,75.20
2017-02-26T08:48:15.433Z,74.70
2017-02-26T08:49:14.352Z,74.70
2017-02-26T08:50:13.079Z,74.80
2017-02-26T08:51:12.376Z,75.10
2017-02-26T08:52:11.445Z,75.30
2017-02-26T08:53:10.491Z,75.20
2017-02-26T08:54:09.224Z,75.10
2017-02-26T08:55:08.433Z,74.70
2017-02-26T08:56:07.596Z,74.60
2017-02-26T08:57:06.368Z,74.40
2017-02-26T08:58:05.120Z,74.30
2017-02-26T08:59:04.393Z,74.10
2017-02-26T09:00:06.579Z,74.20
2017-02-26T09:01:06.324Z,74.60
2017-02-26T09:02:05.579Z,74.10
2017-02-26T09:03:05.021Z,74.00
2017-02-26T09:04:04.601Z,74.00
2017-02-26T09:05:04.024Z,73.90
2017-02-26T09:06:02.816Z,74.30
2017-02-26T09:07:02.011Z,74.20
2017-02-26T09:08:00.972Z,74.00
2017-02-26T09:09:00.458Z,74.20
2017-02-26T09:10:05.106Z,73.70
2017-02-26T09:11:05.030Z,73.90
2017-02-26T09:12:04.118Z,74.20
2017-02-26T09:13:04.217Z,74.50
2017-02-26T09:14:04.077Z,74.30
2017-02-26T09:15:04.065Z,73.80
2017-02-26T09:16:02.861Z,74.00
2017-02-26T09:17:03.486Z,73.90
2017-02-26T09:18:02.217Z,74.10
2017-02-26T09:19:01.340Z,74.10
2017-02-26T09:20:00.060Z,73.90
2017-02-26T09:20:59.409Z,74.00
2017-02-26T09:21:59.223Z,74.20
2017-02-26T09:22:58.000Z,73.80
2017-02-26T09:23:56.996Z,73.80
2017-02-26T09:24:56.513Z,73.80
2017-02-26T09:25:55.365Z,73.90
2017-02-26T09:26:54.347Z,74.10
2017-02-26T09:27:53.143Z,74.00
2017-02-26T09:28:52.669Z,74.20
2017-02-26T09:29:51.384Z,74.00
2017-02-26T09:30:50.218Z,73.90
2017-02-26T09:31:49.209Z,74.10
2017-02-26T09:32:48.255Z,74.20
2017-02-26T09:33:47.611Z,74.00
2017-02-26T09:34:46.721Z,74.00
2017-02-26T09:35:46.050Z,74.00
2017-02-26T09:36:44.792Z,74.10
2017-02-26T09:37:43.560Z,74.00
2017-02-26T09:38:43.388Z,74.00
2017-02-26T09:39:42.502Z,74.10
2017-02-26T09:40:41.786Z,74.10
2017-02-26T09:41:40.929Z,74.00
2017-02-26T09:42:41.137Z,74.00
2017-02-26T09:43:40.412Z,74.10
2017-02-26T09:44:39.834Z,74.20
2017-02-26T09:45:39.004Z,74.10
2017-02-26T09:46:52.799Z,74.20
2017-02-26T09:47:53.121Z,74.10
2017-02-26T09:48:52.166Z,74.20
2017-02-26T09:49:51.524Z,74.50
2017-02-26T09:50:50.293Z,74.20
2017-02-26T09:51:49.281Z,73.90
2017-02-26T09:52:49.656Z,73.90
2017-02-26T09:53:49.146Z,74.10
2017-02-26T09:54:48.294Z,74.10
2017-02-26T09:55:48.217Z,74.00
2017-02-26T09:56:50.384Z,73.80
2017-02-26T09:57:50.477Z,73.80
2017-02-26T09:58:49.408Z,73.80
2017-02-26T09:59:48.473Z,73.80
2017-02-26T10:00:49.296Z,73.70
2017-02-26T10:01:48.448Z,73.60
2017-02-26T10:02:47.254Z,73.70
2017-02-26T10:03:46.346Z,73.80
2017-02-26T10:04:46.622Z,73.80
2017-02-26T10:05:45.650Z,73.50
2017-02-26T10:06:45.189Z,73.40
2017-02-26T10:07:44.122Z,73.20
2017-02-26T10:08:43.325Z,73.30
2017-02-26T10:09:42.456Z,73.50
2017-02-26T10:10:41.421Z,73.40
2017-02-26T10:11:40.134Z,73.20
2017-02-26T10:12:39.543Z,73.20
2017-02-26T10:13:38.285Z,73.20
2017-02-26T10:14:37.323Z,73.40
2017-02-26T10:15:36.616Z,73.50
2017-02-26T10:16:35.955Z,73.00
2017-02-26T10:17:34.869Z,73.10
2017-02-26T10:18:35.526Z,73.00
2017-02-26T10:19:34.423Z,72.40
2017-02-26T10:20:33.470Z,72.60
2017-02-26T10:21:32.387Z,72.80
2017-02-26T10:22:31.115Z,72.50
2017-02-26T10:23:29.847Z,72.30
2017-02-26T10:24:29.738Z,72.20
2017-02-26T10:25:28.500Z,72.30
2017-02-26T10:26:27.253Z,72.20
2017-02-26T10:27:26.427Z,72.30
2017-02-26T10:28:27.932Z,72.50
2017-02-26T10:29:26.635Z,72.50
2017-02-26T10:30:26.187Z,71.80
2017-02-26T10:31:24.934Z,71.90
2017-02-26T10:32:23.879Z,71.80
2017-02-26T10:33:22.831Z,71.80
2017-02-26T10:34:21.771Z,71.70
2017-02-26T10:35:21.255Z,71.90
2017-02-26T10:36:20.606Z,72.10
2017-02-26T10:37:19.315Z,71.60
2017-02-26T10:38:18.818Z,71.30
2017-02-26T10:39:17.724Z,71.30
2017-02-26T10:40:16.491Z,71.00
2017-02-26T10:41:15.379Z,70.90
2017-02-26T10:42:14.320Z,71.40
2017-02-26T10:43:13.307Z,71.30
2017-02-26T10:44:12.154Z,71.20
2017-02-26T10:45:10.831Z,71.10
2017-02-26T10:46:09.924Z,71.30
2017-02-26T10:47:08.623Z,70.90
2017-02-26T10:48:07.785Z,70.20
2017-02-26T10:49:06.718Z,70.60
2017-02-26T10:50:06.461Z,70.90
2017-02-26T10:51:05.449Z,70.70
2017-02-26T10:52:04.435Z,70.20
2017-02-26T10:53:03.155Z,70.60
2017-02-26T10:54:02.562Z,70.60
2017-02-26T10:55:01.620Z,70.70
2017-02-26T10:56:01.327Z,70.80
2017-02-26T10:57:00.362Z,70.80
2017-02-26T10:57:59.095Z,70.90
2017-02-26T10:58:58.492Z,71.00
2017-02-26T10:59:57.719Z,70.60
2017-02-26T11:00:56.625Z,70.80
2017-02-26T11:01:55.559Z,70.60
2017-02-26T11:02:56.019Z,70.20
2017-02-26T11:03:54.746Z,69.90
2017-02-26T11:04:53.373Z,69.80
2017-02-26T11:05:52.535Z,69.70
2017-02-26T11:06:51.439Z,69.40
2017-02-26T11:07:50.190Z,69.50
2017-02-26T11:08:49.471Z,69.60
2017-02-26T11:09:48.383Z,69.50
2017-02-26T11:10:47.840Z,69.40
2017-02-26T11:11:47.904Z,69.90
2017-02-26T11:12:46.883Z,69.90
2017-02-26T11:13:45.649Z,70.00
2017-02-26T11:14:44.562Z,69.90
2017-02-26T11:15:43.830Z,69.80
2017-02-26T11:16:42.915Z,69.80
2017-02-26T11:17:44.033Z,69.60
2017-02-26T11:18:43.363Z,69.80
2017-02-26T11:19:42.455Z,69.40
2017-02-26T11:20:41.324Z,69.50
2017-02-26T11:21:40.422Z,69.40
2017-02-26T11:22:39.200Z,69.40
2017-02-26T11:23:38.955Z,68.80
2017-02-26T11:24:38.137Z,68.70
2017-02-26T11:25:36.724Z,68.90
2017-02-26T11:26:35.767Z,69.10
2017-02-26T11:27:35.139Z,69.50
2017-02-26T11:28:33.798Z,69.20
2017-02-26T11:29:32.515Z,69.10
2017-02-26T11:30:31.183Z,68.80
2017-02-26T11:31:29.921Z,69.30
2017-02-26T11:32:29.367Z,68.60
2017-02-26T11:33:28.334Z,68.60
2017-02-26T11:34:27.908Z,68.40
2017-02-26T11:35:26.625Z,68.20
2017-02-26T11:36:25.293Z,68.30
2017-02-26T11:37:24.653Z,68.20
2017-02-26T11:38:24.433Z,68.80
2017-02-26T11:39:23.028Z,68.20
2017-02-26T11:40:21.681Z,68.00
2017-02-26T11:41:20.340Z,68.00
2017-02-26T11:42:19.630Z,68.20
2017-02-26T11:43:18.979Z,68.20
2017-02-26T11:44:18.280Z,68.30
2017-02-26T11:45:17.017Z,67.80
2017-02-26T11:46:19.042Z,67.70
2017-02-26T11:47:17.722Z,67.70
2017-02-26T11:48:16.427Z,68.00
2017-02-26T11:49:15.669Z,68.80
2017-02-26T11:50:14.335Z,68.80
2017-02-26T11:51:13.876Z,68.70
2017-02-26T11:52:12.668Z,68.70
2017-02-26T11:53:11.362Z,67.70
2017-02-26T11:54:09.992Z,67.80
2017-02-26T11:55:09.070Z,68.10
2017-02-26T11:56:10.012Z,68.10
2017-02-26T11:57:09.046Z,67.70
2017-02-26T11:58:07.951Z,67.90
2017-02-26T11:59:06.586Z,67.90
2017-02-26T12:00:05.878Z,67.90
2017-02-26T12:01:04.579Z,68.20
2017-02-26T12:02:03.268Z,68.60
2017-02-26T12:03:01.971Z,68.20
2017-02-26T12:04:01.027Z,67.00
2017-02-26T12:04:59.683Z,66.90
2017-02-26T12:05:58.351Z,66.60
2017-02-26T12:06:57.038Z,66.50
2017-02-26T12:07:55.691Z,67.00
2017-02-26T12:08:54.363Z,66.20
2017-02-26T12:09:53.683Z,65.90
2017-02-26T12:10:52.365Z,65.10
2017-02-26T12:11:51.023Z,64.50
2017-02-26T12:12:49.631Z,65.40
2017-02-26T12:13:48.192Z,65.20
2017-02-26T12:14:46.878Z,66.00
2017-02-26T12:15:45.511Z,66.20
2017-02-26T12:16:44.671Z,67.20
2017-02-26T12:17:43.382Z,66.80
2017-02-26T12:18:42.063Z,66.80
2017-02-26T12:19:41.046Z,67.20
2017-02-26T12:20:39.690Z,67.10
2017-02-26T12:21:40.946Z,66.40
2017-02-26T12:22:40.023Z,66.20
2017-02-26T12:23:38.634Z,65.70
2017-02-26T12:24:37.266Z,65.80
2017-02-26T12:25:36.222Z,65.50
2017-02-26T12:26:34.766Z,65.30
2017-02-26T12:27:33.384Z,65.30
2017-02-26T12:28:32.383Z,65.50
2017-02-26T12:29:31.010Z,66.00
2017-02-26T12:30:30.081Z,65.90
2017-02-26T12:31:31.836Z,65.70
2017-02-26T12:32:30.374Z,65.30
2017-02-26T12:33:33.750Z,65.10
2017-02-26T12:34:32.380Z,65.00
2017-02-26T12:35:30.944Z,65.20
2017-02-26T12:36:29.559Z,65.20
2017-02-26T12:37:32.562Z,64.40
2017-02-26T12:38:31.164Z,64.50
2017-02-26T12:39:30.647Z,63.50
2017-02-26T12:40:29.247Z,63.70